createdAt,value
2022-09-10T00:00:36.924Z,94170.13
2022-09-10T00:03:04.641Z,94162.63
2022-09-10T00:05:38.111Z,94168.03
2022-09-10T00:08:06.303Z,94171.84
2022-09-10T00:10:39.496Z,94169.00
2022-09-10T00:13:07.925Z,94158.31
2022-09-10T00:15:41.502Z,94173.44
2022-09-10T00:18:09.549Z,94169.94
2022-09-10T00:20:50.071Z,94174.66
2022-09-10T00:23:25.255Z,94169.94
2022-09-10T00:25:53.524Z,94172.63
2022-09-10T00:28:22.543Z,94169.94
2022-09-10T00:30:51.500Z,94165.91
2022-09-10T00:33:20.449Z,94167.81
2022-09-10T00:35:49.032Z,94166.47
2022-09-10T00:38:18.528Z,94164.22
2022-09-10T00:40:45.652Z,94170.47
2022-09-10T00:43:20.647Z,94174.03
2022-09-10T00:45:51.329Z,94176.44
2022-09-10T00:48:22.890Z,94175.81
2022-09-10T00:50:51.960Z,94176.75
2022-09-10T00:53:27.084Z,94172.50
2022-09-10T00:55:59.966Z,94168.94
2022-09-10T00:58:28.311Z,94151.38
2022-09-10T01:01:00.416Z,94168.34
2022-09-10T01:03:32.527Z,94167.56
2022-09-10T01:06:00.114Z,94154.06
2022-09-10T01:08:29.733Z,94142.09
2022-09-10T01:11:08.893Z,94155.38
2022-09-10T01:14:03.818Z,94152.16
2022-09-10T01:16:51.657Z,94151.69
2022-09-10T01:19:37.192Z,94156.56
2022-09-10T01:22:29.485Z,94151.00
2022-09-10T01:25:05.883Z,94147.25
2022-09-10T01:27:42.745Z,94148.31
2022-09-10T01:30:14.744Z,94136.91
2022-09-10T01:32:54.273Z,94148.22
2022-09-10T01:35:32.383Z,94132.16
2022-09-10T01:38:05.928Z,94124.44
2022-09-10T01:40:34.232Z,94127.22
2022-09-10T01:43:10.385Z,94124.19
2022-09-10T01:46:09.717Z,94120.28
2022-09-10T01:48:51.974Z,94132.75
2022-09-10T01:51:21.667Z,94137.88
2022-09-10T01:54:11.436Z,94132.91
2022-09-10T01:56:51.545Z,94126.16
2022-09-10T01:59:29.216Z,94115.56
2022-09-10T02:02:04.790Z,94136.88
2022-09-10T02:04:32.088Z,94124.34
2022-09-10T02:06:59.742Z,94126.34
2022-09-10T02:09:27.499Z,94110.09
2022-09-10T02:11:56.127Z,94116.34
2022-09-10T02:14:51.380Z,94114.88
2022-09-10T02:17:24.967Z,94114.44
2022-09-10T02:19:54.008Z,94124.09
2022-09-10T02:22:23.327Z,94107.31
2022-09-10T02:24:52.164Z,94125.31
2022-09-10T02:27:19.135Z,94104.09
2022-09-10T02:29:45.746Z,94111.84
2022-09-10T02:32:13.383Z,94113.41
2022-09-10T02:34:41.296Z,94105.19
2022-09-10T02:37:08.074Z,94104.53
2022-09-10T02:39:37.077Z,94099.06
2022-09-10T02:42:03.961Z,94091.84
2022-09-10T02:44:31.114Z,94103.50
2022-09-10T02:47:00.631Z,94104.81
2022-09-10T02:49:28.129Z,94100.72
2022-09-10T02:51:55.292Z,94107.94
2022-09-10T02:54:23.550Z,94118.44
2022-09-10T02:56:50.294Z,94109.66
2022-09-10T02:59:20.291Z,94114.81
2022-09-10T03:01:48.442Z,94100.31
2022-09-10T03:04:17.116Z,94116.00
2022-09-10T03:06:49.360Z,94116.09
2022-09-10T03:09:17.167Z,94118.19
2022-09-10T03:11:43.942Z,94112.19
2022-09-10T03:14:10.961Z,94114.88
2022-09-10T03:16:37.890Z,94123.69
2022-09-10T03:19:06.499Z,94117.41
2022-09-10T03:21:34.419Z,94120.56
2022-09-10T03:24:01.258Z,94107.25
2022-09-10T03:26:30.541Z,94124.28
2022-09-10T03:28:57.668Z,94113.34
2022-09-10T03:31:27.343Z,94108.28
2022-09-10T03:33:54.450Z,94115.59
2022-09-10T03:36:22.929Z,94098.84
2022-09-10T03:38:50.383Z,94112.47
2022-09-10T03:41:17.272Z,94110.41
2022-09-10T03:43:44.822Z,94122.44
2022-09-10T03:46:14.630Z,94104.03
2022-09-10T03:48:43.846Z,94122.28
2022-09-10T03:51:11.254Z,94122.19
2022-09-10T03:53:39.255Z,94113.25
2022-09-10T03:56:08.449Z,94114.47
2022-09-10T03:58:35.876Z,94117.84
2022-09-10T04:01:04.151Z,94130.09
2022-09-10T04:03:34.180Z,94116.63
2022-09-10T04:06:00.888Z,94114.19
2022-09-10T04:08:27.633Z,94107.16
2022-09-10T04:10:57.139Z,94112.97
2022-09-10T04:13:24.870Z,94110.06
2022-09-10T04:15:53.331Z,94120.19
2022-09-10T04:18:21.358Z,94108.03
2022-09-10T04:20:48.635Z,94113.88
2022-09-10T04:23:16.382Z,94104.31
2022-09-10T04:25:44.056Z,94114.03
2022-09-10T04:28:11.694Z,94106.28
2022-09-10T04:30:40.324Z,94105.25
2022-09-10T04:33:07.881Z,94110.63
2022-09-10T04:35:34.871Z,94100.41
2022-09-10T04:38:04.403Z,94110.31
2022-09-10T04:40:31.264Z,94124.19
2022-09-10T04:42:57.957Z,94113.88
2022-09-10T04:45:25.746Z,94122.38
2022-09-10T04:47:54.384Z,94124.34
2022-09-10T04:50:21.973Z,94111.44
2022-09-10T04:53:12.273Z,94124.44
2022-09-10T04:55:43.005Z,94112.31
2022-09-10T04:58:10.482Z,94126.34
2022-09-10T05:00:39.404Z,94130.88
2022-09-10T05:03:07.843Z,94133.84
2022-09-10T05:05:36.614Z,94131.66
2022-09-10T05:08:05.755Z,94129.41
2022-09-10T05:10:33.340Z,94126.50
2022-09-10T05:13:00.101Z,94119.22
2022-09-10T05:15:26.878Z,94122.78
2022-09-10T05:17:53.975Z,94124.25
2022-09-10T05:20:20.648Z,94121.84
2022-09-10T05:22:50.643Z,94123.47
2022-09-10T05:25:17.775Z,94137.22
2022-09-10T05:27:44.445Z,94138.50
2022-09-10T05:30:15.602Z,94139.56
2022-09-10T05:32:42.299Z,94145.78
2022-09-10T05:35:09.598Z,94141.38
2022-09-10T05:37:40.118Z,94136.22
2022-09-10T05:40:09.247Z,94138.72
2022-09-10T05:42:36.037Z,94150.03
2022-09-10T05:45:03.343Z,94137.16
2022-09-10T05:47:31.150Z,94147.25
2022-09-10T05:49:59.792Z,94130.75
2022-09-10T05:52:27.451Z,94141.28
2022-09-10T05:54:59.429Z,94129.97
2022-09-10T05:57:27.278Z,94137.47
2022-09-10T05:59:54.030Z,94131.03
2022-09-10T06:02:24.153Z,94118.53
2022-09-10T06:04:52.741Z,94141.72
2022-09-10T06:07:20.349Z,94139.81
2022-09-10T06:09:47.043Z,94139.91
2022-09-10T06:12:36.082Z,94140.94
2022-09-10T06:15:03.746Z,94148.84
2022-09-10T06:17:30.545Z,94147.72
2022-09-10T06:19:57.979Z,94155.91
2022-09-10T06:22:24.710Z,94140.00
2022-09-10T06:24:53.798Z,94144.34
2022-09-10T06:27:23.285Z,94161.97
2022-09-10T06:29:51.328Z,94152.75
2022-09-10T06:32:18.903Z,94149.72
2022-09-10T06:34:46.791Z,94145.03
2022-09-10T06:37:13.511Z,94145.19
2022-09-10T06:39:41.339Z,94166.59
2022-09-10T06:42:08.402Z,94168.81
2022-09-10T06:44:55.097Z,94166.28
2022-09-10T06:50:35.439Z,94158.84
2022-09-10T06:53:02.150Z,94165.78
2022-09-10T06:55:28.804Z,94173.69
2022-09-10T06:57:55.489Z,94170.72
2022-09-10T07:00:22.285Z,94163.53
2022-09-10T07:02:53.002Z,94180.53
2022-09-10T07:05:20.889Z,94180.97
2022-09-10T07:07:47.981Z,94175.84
2022-09-10T07:10:15.419Z,94174.97
2022-09-10T07:12:42.090Z,94174.47
2022-09-10T07:15:09.474Z,94166.91
2022-09-10T07:17:36.759Z,94176.38
2022-09-10T07:20:03.912Z,94183.13
2022-09-10T07:22:42.647Z,94178.34
2022-09-10T07:25:10.707Z,94179.28
2022-09-10T07:27:53.839Z,94188.84
2022-09-10T07:30:22.323Z,94183.19
2022-09-10T07:32:50.569Z,94177.72
2022-09-10T07:35:22.386Z,94180.16
2022-09-10T07:37:50.134Z,94185.53
2022-09-10T07:40:19.055Z,94190.50
2022-09-10T07:42:45.986Z,94193.56
2022-09-10T07:45:16.286Z,94196.31
2022-09-10T07:47:44.693Z,94188.94
2022-09-10T07:50:12.320Z,94188.66
2022-09-10T07:52:39.138Z,94198.19
2022-09-10T07:55:06.614Z,94202.19
2022-09-10T07:57:41.072Z,94214.75
2022-09-10T08:00:12.316Z,94203.19
2022-09-10T08:02:43.010Z,94217.50
2022-09-10T08:05:14.218Z,94211.88
2022-09-10T08:07:41.728Z,94213.56
2022-09-10T08:10:09.941Z,94228.06
2022-09-10T08:12:38.124Z,94220.31
2022-09-10T08:15:06.153Z,94226.66
2022-09-10T08:17:34.306Z,94223.69
2022-09-10T08:20:01.468Z,94224.75
2022-09-10T08:22:28.258Z,94236.41
2022-09-10T08:24:56.475Z,94221.94
2022-09-10T08:27:29.112Z,94236.88
2022-09-10T08:29:57.636Z,94233.81
2022-09-10T08:32:24.482Z,94236.72
2022-09-10T08:34:52.529Z,94241.91
2022-09-10T08:37:19.381Z,94241.78
2022-09-10T08:39:46.283Z,94250.94
2022-09-10T08:42:46.325Z,94255.13
2022-09-10T08:45:29.966Z,94260.63
2022-09-10T08:48:06.663Z,94248.88
2022-09-10T08:50:46.756Z,94254.78
2022-09-10T08:53:42.138Z,94257.28
2022-09-10T08:56:16.825Z,94266.91
2022-09-10T08:59:05.092Z,94266.31
2022-09-10T09:01:50.875Z,94264.22
2022-09-10T09:04:40.093Z,94269.72
2022-09-10T09:07:16.162Z,94267.38
2022-09-10T09:09:53.667Z,94260.31
2022-09-10T09:12:30.711Z,94271.91
2022-09-10T09:15:01.836Z,94280.66
2022-09-10T09:17:49.518Z,94287.13
2022-09-10T09:20:25.888Z,94264.13
2022-09-10T09:23:17.471Z,94264.25
2022-09-10T09:26:10.302Z,94271.34
2022-09-10T09:28:52.734Z,94266.78
2022-09-10T09:31:27.457Z,94269.47
2022-09-10T09:34:04.843Z,94274.28
2022-09-10T09:36:39.015Z,94259.75
2022-09-10T09:39:25.448Z,94252.84
2022-09-10T09:42:10.436Z,94251.91
2022-09-10T09:45:00.536Z,94247.66
2022-09-10T09:47:27.680Z,94258.56
2022-09-10T09:49:54.634Z,94243.78
2022-09-10T09:52:23.698Z,94234.38
2022-09-10T09:55:13.758Z,94238.59
2022-09-10T09:57:42.930Z,94238.69
2022-09-10T10:00:36.352Z,94246.06
2022-09-10T10:03:16.562Z,94242.91
2022-09-10T10:05:43.465Z,94236.38
2022-09-10T10:08:30.171Z,94232.88
2022-09-10T10:10:57.672Z,94228.56
2022-09-10T10:13:24.865Z,94212.28
2022-09-10T10:15:51.521Z,94216.44
2022-09-10T10:18:38.512Z,94230.13
2022-09-10T10:21:20.283Z,94225.84
2022-09-10T10:23:47.862Z,94219.56
2022-09-10T10:26:20.447Z,94232.38
2022-09-10T10:28:48.987Z,94221.97
2022-09-10T10:31:16.604Z,94207.59
2022-09-10T10:33:59.220Z,94214.97
2022-09-10T10:36:32.622Z,94224.69
2022-09-10T10:39:24.408Z,94212.59
2022-09-10T10:42:04.533Z,94214.06
2022-09-10T10:44:56.816Z,94218.88
2022-09-10T10:47:29.734Z,94216.16
2022-09-10T10:50:18.352Z,94220.03
2022-09-10T10:53:18.561Z,94209.13
2022-09-10T10:56:02.118Z,94211.88
2022-09-10T10:58:39.621Z,94210.72
2022-09-10T11:01:18.725Z,94203.66
2022-09-10T11:03:55.553Z,94217.28
2022-09-10T11:06:27.383Z,94204.09
2022-09-10T11:09:01.304Z,94208.00
2022-09-10T11:11:34.739Z,94212.25
2022-09-10T11:14:07.330Z,94200.97
2022-09-10T11:16:48.762Z,94209.13
2022-09-10T11:19:35.635Z,94202.94
2022-09-10T11:22:18.691Z,94212.25
2022-09-10T11:25:23.744Z,94207.59
2022-09-10T11:27:55.969Z,94204.41
2022-09-10T11:30:22.700Z,94195.09
2022-09-10T11:32:55.453Z,94209.91
2022-09-10T11:35:29.802Z,94214.16
2022-09-10T11:38:11.864Z,94207.59
2022-09-10T11:40:43.199Z,94204.50
2022-09-10T11:43:42.420Z,94202.94
2022-09-10T11:46:35.081Z,94200.22
2022-09-10T11:49:07.651Z,94206.00
2022-09-10T11:51:37.445Z,94214.78
2022-09-10T11:54:09.724Z,94213.75
2022-09-10T11:56:55.049Z,94219.97
2022-09-10T12:00:02.514Z,94220.44
2022-09-10T12:02:53.772Z,94210.91
2022-09-10T12:05:58.211Z,94206.75
2022-09-10T12:08:32.736Z,94214.69
2022-09-10T12:11:00.850Z,94213.22
2022-09-10T12:13:27.995Z,94210.91
2022-09-10T12:15:59.801Z,94221.69
2022-09-10T12:18:28.942Z,94214.19
2022-09-10T12:21:02.650Z,94221.78
2022-09-10T12:23:33.426Z,94210.78
2022-09-10T12:26:20.730Z,94203.13
2022-09-10T12:28:53.679Z,94216.72
2022-09-10T12:31:21.932Z,94207.59
2022-09-10T12:33:48.516Z,94215.66
2022-09-10T12:36:27.303Z,94210.69
2022-09-10T12:39:23.549Z,94201.81
2022-09-10T12:41:50.203Z,94204.56
2022-09-10T12:44:36.014Z,94201.16
2022-09-10T12:47:18.007Z,94204.47
2022-09-10T12:49:47.577Z,94197.50
2022-09-10T12:52:37.472Z,94188.91
2022-09-10T12:55:32.158Z,94195.72
2022-09-10T12:58:32.207Z,94201.66
2022-09-10T13:01:18.388Z,94198.31
2022-09-10T13:03:56.292Z,94191.34
2022-09-10T13:06:41.207Z,94182.31
2022-09-10T13:09:25.625Z,94184.84
2022-09-10T13:11:55.613Z,94168.78
2022-09-10T13:14:33.478Z,94173.38
2022-09-10T13:17:00.137Z,94180.38
2022-09-10T13:19:26.855Z,94181.47
2022-09-10T13:21:55.030Z,94174.72
2022-09-10T13:24:34.339Z,94166.19
2022-09-10T13:27:13.169Z,94172.75
2022-09-10T13:29:43.487Z,94166.56
2022-09-10T13:32:29.259Z,94164.06
2022-09-10T13:35:14.961Z,94166.78
2022-09-10T13:37:59.333Z,94164.78
2022-09-10T13:40:38.779Z,94166.94
2022-09-10T13:43:21.035Z,94157.53
2022-09-10T13:45:56.235Z,94168.38
2022-09-10T13:48:27.568Z,94166.03
2022-09-10T13:51:21.079Z,94163.34
2022-09-10T13:53:49.201Z,94160.91
2022-09-10T13:56:28.188Z,94154.72
2022-09-10T13:59:00.861Z,94150.00
2022-09-10T14:01:49.893Z,94156.50
2022-09-10T14:04:33.107Z,94145.38
2022-09-10T14:07:07.009Z,94145.38
2022-09-10T14:09:34.774Z,94153.88
2022-09-10T14:12:08.010Z,94150.75
2022-09-10T14:14:39.989Z,94151.44
2022-09-10T14:17:19.888Z,94148.31
2022-09-10T14:19:49.291Z,94156.41
2022-09-10T14:22:22.259Z,94165.69
2022-09-10T14:24:54.237Z,94170.34
2022-09-10T14:27:25.783Z,94174.47
2022-09-10T14:29:56.778Z,94158.81
2022-09-10T14:32:36.311Z,94174.28
2022-09-10T14:35:40.638Z,94171.91
2022-09-10T14:38:30.497Z,94165.63
2022-09-10T14:41:08.001Z,94159.03
2022-09-10T14:43:38.444Z,94167.59
2022-09-10T14:46:10.332Z,94163.63
2022-09-10T14:48:41.426Z,94163.22
2022-09-10T14:51:24.779Z,94163.22
2022-09-10T14:53:53.517Z,94156.31
2022-09-10T14:56:29.022Z,94151.69
2022-09-10T14:58:57.686Z,94150.16
2022-09-10T15:01:24.633Z,94145.56
2022-09-10T15:03:51.552Z,94147.97
2022-09-10T15:06:21.935Z,94149.88
2022-09-10T15:08:51.205Z,94153.69
2022-09-10T15:11:21.954Z,94152.56
2022-09-10T15:13:49.549Z,94145.56
2022-09-10T15:16:16.388Z,94151.44
2022-09-10T15:18:43.015Z,94144.16
2022-09-10T15:21:12.775Z,94156.19
2022-09-10T15:23:39.485Z,94156.88
2022-09-10T15:26:07.120Z,94171.16
2022-09-10T15:28:33.757Z,94156.34
2022-09-10T15:31:01.262Z,94163.56
2022-09-10T15:33:28.616Z,94156.56
2022-09-10T15:35:55.320Z,94156.94
2022-09-10T15:38:21.912Z,94153.16
2022-09-10T15:40:50.068Z,94160.16
2022-09-10T15:43:19.336Z,94160.19
2022-09-10T15:45:49.991Z,94160.53
2022-09-10T15:48:16.613Z,94163.63
2022-09-10T15:50:43.410Z,94158.97
2022-09-10T15:53:12.023Z,94162.47
2022-09-10T15:55:39.354Z,94169.91
2022-09-10T15:58:06.420Z,94171.03
2022-09-10T16:00:34.539Z,94169.88
2022-09-10T16:03:01.943Z,94172.47
2022-09-10T16:05:28.834Z,94168.94
2022-09-10T16:07:55.472Z,94171.56
2022-09-10T16:10:22.323Z,94174.59
2022-09-10T16:12:48.959Z,94167.53
2022-09-10T16:15:15.594Z,94167.50
2022-09-10T16:17:42.363Z,94170.16
2022-09-10T16:20:09.850Z,94172.47
2022-09-10T16:22:36.936Z,94179.88
2022-09-10T16:25:07.233Z,94175.63
2022-09-10T16:27:34.074Z,94185.31
2022-09-10T16:30:00.680Z,94180.59
2022-09-10T16:32:28.695Z,94181.34
2022-09-10T16:34:55.812Z,94188.31
2022-09-10T16:37:23.531Z,94184.44
2022-09-10T16:39:50.207Z,94178.19
2022-09-10T16:42:17.300Z,94180.06
2022-09-10T16:44:43.917Z,94175.75
2022-09-10T16:47:10.558Z,94184.66
2022-09-10T16:49:37.227Z,94186.19
2022-09-10T16:52:05.237Z,94179.53
2022-09-10T16:54:31.994Z,94187.22
2022-09-10T16:56:58.839Z,94182.50
2022-09-10T16:59:25.968Z,94194.03
2022-09-10T17:01:53.249Z,94196.72
2022-09-10T17:04:28.337Z,94195.06
2022-09-10T17:06:56.427Z,94201.63
2022-09-10T17:09:23.141Z,94210.47
2022-09-10T17:11:49.930Z,94214.34
2022-09-10T17:14:16.563Z,94215.13
2022-09-10T17:16:43.795Z,94220.16
2022-09-10T17:19:20.244Z,94224.69
2022-09-10T17:21:51.266Z,94222.75
2022-09-10T17:24:20.994Z,94231.06
2022-09-10T17:26:47.800Z,94219.91
2022-09-10T17:29:16.642Z,94220.75
2022-09-10T17:31:46.604Z,94227.44
2022-09-10T17:34:15.382Z,94231.94
2022-09-10T17:36:47.019Z,94233.34
2022-09-10T17:39:15.177Z,94235.16
2022-09-10T17:41:43.074Z,94240.41
2022-09-10T17:44:11.365Z,94246.91
2022-09-10T17:46:38.381Z,94249.06
2022-09-10T17:49:05.580Z,94251.97
2022-09-10T17:51:33.986Z,94257.63
2022-09-10T17:54:03.421Z,94254.94
2022-09-10T17:56:31.094Z,94259.91
2022-09-10T17:59:01.466Z,94261.03
2022-09-10T18:01:31.665Z,94257.41
2022-09-10T18:03:58.435Z,94257.69
2022-09-10T18:06:26.975Z,94249.66
2022-09-10T18:08:53.703Z,94252.50
2022-09-10T18:11:23.239Z,94251.72
2022-09-10T18:13:52.380Z,94248.25
2022-09-10T18:16:23.788Z,94250.53
2022-09-10T18:18:56.858Z,94256.69
2022-09-10T18:21:28.089Z,94253.03
2022-09-10T18:23:58.837Z,94253.81
2022-09-10T18:26:27.437Z,94260.63
2022-09-10T18:29:13.930Z,94269.25
2022-09-10T18:31:46.722Z,94270.38
2022-09-10T18:34:18.500Z,94271.31
2022-09-10T18:36:49.627Z,94267.59
2022-09-10T18:39:16.327Z,94268.44
2022-09-10T18:41:43.129Z,94272.34
2022-09-10T18:44:16.463Z,94272.72
2022-09-10T18:46:45.861Z,94271.16
2022-09-10T18:49:21.008Z,94273.06
2022-09-10T18:51:49.093Z,94274.56
2022-09-10T18:54:17.478Z,94276.81
2022-09-10T18:56:48.912Z,94277.78
2022-09-10T18:59:20.411Z,94279.63
2022-09-10T19:01:48.677Z,94286.88
2022-09-10T19:04:24.407Z,94289.22
2022-09-10T19:06:51.891Z,94293.00
2022-09-10T19:09:26.968Z,94279.34
2022-09-10T19:11:55.201Z,94294.91
2022-09-10T19:14:26.146Z,94291.00
2022-09-10T19:16:55.045Z,94294.13
2022-09-10T19:19:24.145Z,94291.50
2022-09-10T19:21:55.918Z,94285.59
2022-09-10T19:24:43.981Z,94289.25
2022-09-10T19:27:13.164Z,94288.69
2022-09-10T19:29:42.073Z,94282.78
2022-09-10T19:32:09.481Z,94280.44
2022-09-10T19:34:37.241Z,94277.75
2022-09-10T19:37:04.262Z,94284.19
2022-09-10T19:39:30.901Z,94275.19
2022-09-10T19:41:58.244Z,94281.00
2022-09-10T19:44:24.872Z,94284.53
2022-09-10T19:46:52.165Z,94285.66
2022-09-10T19:49:19.280Z,94278.34
2022-09-10T19:51:46.715Z,94287.16
2022-09-10T19:54:14.730Z,94284.41
2022-09-10T19:56:42.819Z,94282.31
2022-09-10T19:59:10.622Z,94279.09
2022-09-10T20:01:41.103Z,94282.56
2022-09-10T20:04:11.367Z,94298.75
2022-09-10T20:06:39.325Z,94294.50
2022-09-10T20:09:08.051Z,94294.06
2022-09-10T20:11:35.808Z,94291.03
2022-09-10T20:14:08.226Z,94291.03
2022-09-10T20:16:43.004Z,94287.53
2022-09-10T20:19:11.748Z,94290.16
2022-09-10T20:21:38.734Z,94286.97
2022-09-10T20:24:08.911Z,94289.75
2022-09-10T20:26:47.288Z,94293.56
2022-09-10T20:29:17.934Z,94290.44
2022-09-10T20:31:46.317Z,94293.13
2022-09-10T20:34:20.238Z,94294.69
2022-09-10T20:36:48.503Z,94299.22
2022-09-10T20:39:17.706Z,94291.91
2022-09-10T20:41:45.492Z,94295.13
2022-09-10T20:44:14.251Z,94302.25
2022-09-10T20:46:41.972Z,94303.81
2022-09-10T20:49:11.513Z,94291.44
2022-09-10T20:51:40.490Z,94294.94
2022-09-10T20:54:12.806Z,94302.31
2022-09-10T20:56:39.826Z,94296.94
2022-09-10T20:59:06.479Z,94291.53
2022-09-10T21:01:33.357Z,94290.06
2022-09-10T21:04:01.404Z,94299.81
2022-09-10T21:06:31.286Z,94301.72
2022-09-10T21:08:59.142Z,94302.16
2022-09-10T21:11:28.693Z,94304.50
2022-09-10T21:14:00.288Z,94306.31
2022-09-10T21:16:29.725Z,94308.69
2022-09-10T21:18:59.571Z,94308.69
2022-09-10T21:21:28.426Z,94312.50
2022-09-10T21:23:57.443Z,94303.19
2022-09-10T21:26:26.831Z,94309.72
2022-09-10T21:28:56.342Z,94308.94
2022-09-10T21:31:23.654Z,94305.03
2022-09-10T21:33:51.049Z,94306.06
2022-09-10T21:36:19.979Z,94304.00
2022-09-10T21:38:57.028Z,94301.22
2022-09-10T21:41:26.466Z,94307.75
2022-09-10T21:43:53.141Z,94304.97
2022-09-10T21:46:19.905Z,94318.09
2022-09-10T21:48:46.675Z,94316.97
2022-09-10T21:51:15.920Z,94312.69
2022-09-10T21:53:43.905Z,94318.00
2022-09-10T21:56:16.488Z,94318.00
2022-09-10T21:58:45.327Z,94314.97
2022-09-10T22:01:18.902Z,94309.22
2022-09-10T22:03:49.613Z,94311.13
2022-09-10T22:06:25.489Z,94311.91
2022-09-10T22:08:58.382Z,94311.03
2022-09-10T22:11:31.014Z,94309.38
2022-09-10T22:14:01.126Z,94305.56
2022-09-10T22:16:31.131Z,94306.00
2022-09-10T22:19:00.261Z,94298.78
2022-09-10T22:21:27.429Z,94300.44
2022-09-10T22:23:54.049Z,94296.69
2022-09-10T22:26:24.577Z,94301.66
2022-09-10T22:28:54.226Z,94294.25
2022-09-10T22:31:23.804Z,94294.97
2022-09-10T22:33:56.155Z,94297.31
2022-09-10T22:36:34.704Z,94308.09
2022-09-10T22:39:02.301Z,94307.31
2022-09-10T22:41:31.775Z,94303.41
2022-09-10T22:43:58.718Z,94307.56
2022-09-10T22:46:26.676Z,94306.00
2022-09-10T22:48:53.604Z,94307.13
2022-09-10T22:51:25.476Z,94308.69
2022-09-10T22:53:53.769Z,94315.81
2022-09-10T22:56:26.207Z,94321.31
2022-09-10T22:58:54.397Z,94327.81
2022-09-10T23:01:24.542Z,94316.78
2022-09-10T23:03:52.185Z,94323.75
2022-09-10T23:06:21.503Z,94319.13
2022-09-10T23:08:50.883Z,94320.25
2022-09-10T23:11:29.346Z,94327.56
2022-09-10T23:14:02.501Z,94324.09
2022-09-10T23:16:35.403Z,94332.63
2022-09-10T23:19:05.248Z,94327.22
2022-09-10T23:21:33.914Z,94331.56
2022-09-10T23:24:03.217Z,94320.69
2022-09-10T23:26:30.288Z,94324.97
2022-09-10T23:28:57.466Z,94327.22
2022-09-10T23:31:26.774Z,94321.66
2022-09-10T23:33:59.642Z,94326.25
2022-09-10T23:36:32.468Z,94322.72
2022-09-10T23:39:00.046Z,94320.72
2022-09-10T23:41:27.384Z,94318.19
2022-09-10T23:43:54.345Z,94329.31
2022-09-10T23:46:21.602Z,94329.75
2022-09-10T23:48:49.341Z,94324.16
2022-09-10T23:51:19.267Z,94317.00
2022-09-10T23:53:46.763Z,94316.03
2022-09-10T23:56:15.510Z,94320.09
2022-09-10T23:58:42.330Z,94321.84
